createdAt,value
2022-10-15T00:01:26.319Z,100575.00
2022-10-15T00:03:54.087Z,100567.09
2022-10-15T00:06:21.889Z,100566.28
2022-10-15T00:08:49.450Z,100570.63
2022-10-15T00:11:20.472Z,100581.22
2022-10-15T00:13:49.258Z,100573.16
2022-10-15T00:16:21.367Z,100579.34
2022-10-15T00:18:49.552Z,100567.78
2022-10-15T00:21:18.958Z,100559.06
2022-10-15T00:23:47.780Z,100571.41
2022-10-15T00:26:21.978Z,100576.88
2022-10-15T00:28:52.276Z,100571.50
2022-10-15T00:31:27.251Z,100576.09
2022-10-15T00:33:58.100Z,100574.22
2022-10-15T00:36:28.545Z,100561.88
2022-10-15T00:38:56.412Z,100571.13
2022-10-15T00:41:31.333Z,100573.69
2022-10-15T00:44:21.143Z,100577.22
2022-10-15T00:46:51.703Z,100569.63
2022-10-15T00:49:30.387Z,100570.59
2022-10-15T00:52:02.548Z,100568.13
2022-10-15T00:54:34.794Z,100569.09
2022-10-15T00:57:02.352Z,100567.16
2022-10-15T00:59:31.426Z,100574.03
2022-10-15T01:02:01.146Z,100565.31
2022-10-15T01:04:30.888Z,100581.00
2022-10-15T01:06:58.533Z,100561.22
2022-10-15T01:09:26.436Z,100572.38
2022-10-15T01:11:56.151Z,100570.69
2022-10-15T01:14:40.171Z,100571.19
2022-10-15T01:17:19.567Z,100572.00
2022-10-15T01:20:24.939Z,100581.00
2022-10-15T01:23:22.414Z,100581.78
2022-10-15T01:26:31.230Z,100582.59
2022-10-15T01:29:04.351Z,100582.09
2022-10-15T01:32:17.977Z,100582.44
2022-10-15T01:34:51.594Z,100598.94
2022-10-15T01:37:36.661Z,100590.94
2022-10-15T01:40:26.076Z,100593.56
2022-10-15T01:43:03.903Z,100594.53
2022-10-15T01:45:54.778Z,100594.38
2022-10-15T01:48:45.730Z,100594.38
2022-10-15T01:51:15.595Z,100602.06
2022-10-15T01:53:44.932Z,100592.41
2022-10-15T01:56:19.377Z,100601.41
2022-10-15T01:58:49.852Z,100605.66
2022-10-15T02:01:18.324Z,100594.38
2022-10-15T02:03:51.163Z,100595.69
2022-10-15T02:06:42.247Z,100604.50
2022-10-15T02:09:18.690Z,100607.94
2022-10-15T02:12:13.800Z,100603.81
2022-10-15T02:14:46.411Z,100607.00
2022-10-15T02:17:16.729Z,100604.19
2022-10-15T02:20:20.749Z,100614.59
2022-10-15T02:23:41.077Z,100617.66
2022-10-15T02:26:11.633Z,100613.78
2022-10-15T02:28:45.228Z,100611.66
2022-10-15T02:31:16.359Z,100608.22
2022-10-15T02:33:45.197Z,100610.97
2022-10-15T02:36:15.367Z,100630.03
2022-10-15T02:38:45.181Z,100618.91
2022-10-15T02:41:13.508Z,100624.84
2022-10-15T02:43:41.917Z,100626.50
2022-10-15T02:46:14.938Z,100611.75
2022-10-15T02:48:44.605Z,100627.47
2022-10-15T02:51:12.127Z,100623.94
2022-10-15T02:53:39.545Z,100623.16
2022-10-15T02:56:07.230Z,100629.25
2022-10-15T02:58:34.931Z,100623.88
2022-10-15T03:01:02.850Z,100617.88
2022-10-15T03:03:30.383Z,100630.03
2022-10-15T03:05:57.865Z,100623.69
2022-10-15T03:08:25.365Z,100630.75
2022-10-15T03:10:53.025Z,100617.59
2022-10-15T03:13:20.829Z,100630.91
2022-10-15T03:15:52.303Z,100639.59
2022-10-15T03:18:22.226Z,100626.78
2022-10-15T03:20:54.963Z,100626.69
2022-10-15T03:23:23.709Z,100626.78
2022-10-15T03:25:59.368Z,100629.59
2022-10-15T03:28:29.672Z,100627.47
2022-10-15T03:30:58.010Z,100637.13
2022-10-15T03:33:28.586Z,100632.78
2022-10-15T03:35:57.519Z,100633.31
2022-10-15T03:38:25.656Z,100625.63
2022-10-15T03:40:54.259Z,100636.25
2022-10-15T03:43:41.933Z,100633.91
2022-10-15T03:46:11.194Z,100633.75
2022-10-15T03:48:43.207Z,100628.63
2022-10-15T03:51:15.654Z,100621.41
2022-10-15T03:53:47.973Z,100632.88
2022-10-15T03:56:16.096Z,100639.03
2022-10-15T03:58:43.657Z,100632.16
2022-10-15T04:01:17.800Z,100632.88
2022-10-15T04:03:45.867Z,100643.13
2022-10-15T04:06:16.683Z,100636.25
2022-10-15T04:08:45.483Z,100639.59
2022-10-15T04:11:21.182Z,100636.31
2022-10-15T04:13:58.877Z,100633.31
2022-10-15T04:16:26.519Z,100640.47
2022-10-15T04:18:53.958Z,100640.47
2022-10-15T04:21:21.663Z,100634.19
2022-10-15T04:23:56.215Z,100644.88
2022-10-15T04:26:32.854Z,100646.72
2022-10-15T04:29:01.678Z,100634.56
2022-10-15T04:31:29.999Z,100641.00
2022-10-15T04:33:58.883Z,100639.94
2022-10-15T04:36:27.675Z,100636.75
2022-10-15T04:39:00.779Z,100646.50
2022-10-15T04:41:42.913Z,100650.00
2022-10-15T04:44:21.730Z,100652.50
2022-10-15T04:46:54.680Z,100654.25
2022-10-15T04:49:42.524Z,100648.50
2022-10-15T04:52:26.638Z,100643.81
2022-10-15T04:54:58.741Z,100656.19
2022-10-15T04:57:27.343Z,100647.25
2022-10-15T04:59:57.720Z,100644.69
2022-10-15T05:02:28.640Z,100644.00
2022-10-15T05:05:09.775Z,100658.94
2022-10-15T05:07:46.863Z,100664.22
2022-10-15T05:10:15.288Z,100672.09
2022-10-15T05:15:15.531Z,100667.94
2022-10-15T05:17:45.799Z,100674.03
2022-10-15T05:20:13.270Z,100675.78
2022-10-15T05:22:40.773Z,100670.75
2022-10-15T05:25:15.678Z,100675.25
2022-10-15T05:27:43.268Z,100672.69
2022-10-15T05:30:13.588Z,100661.50
2022-10-15T05:32:53.035Z,100663.41
2022-10-15T05:35:22.149Z,100679.94
2022-10-15T05:38:04.728Z,100669.06
2022-10-15T05:40:32.274Z,100677.00
2022-10-15T05:43:05.408Z,100678.69
2022-10-15T05:45:32.939Z,100671.44
2022-10-15T05:48:05.306Z,100679.56
2022-10-15T05:50:33.251Z,100680.53
2022-10-15T05:53:02.923Z,100683.38
2022-10-15T05:55:33.137Z,100674.06
2022-10-15T05:58:04.829Z,100686.53
2022-10-15T06:00:32.975Z,100680.44
2022-10-15T06:03:00.806Z,100696.16
2022-10-15T06:05:28.251Z,100690.16
2022-10-15T06:07:56.792Z,100690.16
2022-10-15T06:10:24.398Z,100683.94
2022-10-15T06:12:51.895Z,100694.63
2022-10-15T06:15:19.913Z,100693.69
2022-10-15T06:17:47.446Z,100680.69
2022-10-15T06:20:14.944Z,100681.91
2022-10-15T06:22:42.380Z,100682.63
2022-10-15T06:25:10.059Z,100683.84
2022-10-15T06:27:38.706Z,100694.19
2022-10-15T06:30:06.800Z,100690.72
2022-10-15T06:32:34.390Z,100682.25
2022-10-15T06:35:01.859Z,100682.31
2022-10-15T06:37:30.529Z,100684.34
2022-10-15T06:39:59.424Z,100686.59
2022-10-15T06:42:26.962Z,100697.38
2022-10-15T06:44:56.249Z,100693.28
2022-10-15T06:47:26.561Z,100694.25
2022-10-15T06:49:54.175Z,100691.94
2022-10-15T06:52:22.020Z,100695.53
2022-10-15T06:54:49.679Z,100704.38
2022-10-15T06:57:19.514Z,100684.66
2022-10-15T06:59:46.994Z,100693.47
2022-10-15T07:02:14.413Z,100694.59
2022-10-15T07:04:41.950Z,100697.41
2022-10-15T07:07:09.415Z,100698.28
2022-10-15T07:09:36.963Z,100696.94
2022-10-15T07:12:04.894Z,100701.19
2022-10-15T07:14:32.598Z,100696.75
2022-10-15T07:17:00.438Z,100703.03
2022-10-15T07:19:29.706Z,100699.44
2022-10-15T07:21:57.228Z,100711.16
2022-10-15T07:24:24.666Z,100707.97
2022-10-15T07:26:52.257Z,100709.00
2022-10-15T07:29:19.671Z,100714.00
2022-10-15T07:31:48.525Z,100713.25
2022-10-15T07:34:17.171Z,100721.34
2022-10-15T07:36:44.711Z,100711.81
2022-10-15T07:39:12.179Z,100716.06
2022-10-15T07:41:39.837Z,100728.50
2022-10-15T07:44:07.246Z,100720.81
2022-10-15T07:46:34.679Z,100715.97
2022-10-15T07:49:02.287Z,100728.81
2022-10-15T07:51:29.682Z,100723.50
2022-10-15T07:53:57.165Z,100733.06
2022-10-15T07:56:24.742Z,100732.97
2022-10-15T07:58:52.154Z,100725.59
2022-10-15T08:01:21.567Z,100719.66
2022-10-15T08:03:49.052Z,100725.06
2022-10-15T08:10:12.088Z,100719.25
2022-10-15T08:12:42.739Z,100726.72
2022-10-15T08:15:10.810Z,100736.59
2022-10-15T08:17:38.679Z,100732.72
2022-10-15T08:20:06.807Z,100728.97
2022-10-15T08:22:34.672Z,100740.63
2022-10-15T08:25:02.332Z,100740.22
2022-10-15T08:27:31.119Z,100740.03
2022-10-15T08:29:58.610Z,100732.81
2022-10-15T08:32:26.191Z,100742.53
2022-10-15T08:34:53.899Z,100738.13
2022-10-15T08:37:21.511Z,100730.59
2022-10-15T08:39:49.096Z,100746.41
2022-10-15T08:42:23.556Z,100742.31
2022-10-15T08:44:56.962Z,100744.72
2022-10-15T08:47:29.062Z,100747.28
2022-10-15T08:50:01.472Z,100737.09
2022-10-15T08:52:44.099Z,100746.06
2022-10-15T08:55:14.864Z,100756.34
2022-10-15T08:58:13.994Z,100745.88
2022-10-15T09:00:51.981Z,100752.44
2022-10-15T09:03:41.050Z,100745.09
2022-10-15T09:06:30.883Z,100741.63
2022-10-15T09:09:30.759Z,100739.13
2022-10-15T09:12:07.345Z,100736.63
2022-10-15T09:14:39.006Z,100733.03
2022-10-15T09:17:28.060Z,100742.28
2022-10-15T09:19:58.016Z,100746.41
2022-10-15T09:22:28.830Z,100733.97
2022-10-15T09:24:57.021Z,100729.94
2022-10-15T09:27:35.543Z,100727.66
2022-10-15T09:30:23.842Z,100730.22
2022-10-15T09:33:03.049Z,100732.72
2022-10-15T09:35:43.146Z,100724.50
2022-10-15T09:38:32.053Z,100727.19
2022-10-15T09:41:17.695Z,100743.16
2022-10-15T09:43:49.194Z,100738.63
2022-10-15T09:46:17.480Z,100743.22
2022-10-15T09:49:08.754Z,100738.09
2022-10-15T09:51:50.427Z,100743.09
2022-10-15T09:54:29.511Z,100747.34
2022-10-15T09:56:57.906Z,100732.56
2022-10-15T09:59:25.991Z,100738.53
2022-10-15T10:02:02.742Z,100742.34
2022-10-15T10:04:34.996Z,100739.56
2022-10-15T10:07:07.541Z,100736.69
2022-10-15T10:09:50.926Z,100740.22
2022-10-15T10:12:22.947Z,100729.28
2022-10-15T10:14:59.207Z,100731.75
2022-10-15T10:17:29.216Z,100734.63
2022-10-15T10:20:19.939Z,100736.13
2022-10-15T10:22:53.255Z,100743.91
2022-10-15T10:25:26.840Z,100732.78
2022-10-15T10:28:17.309Z,100750.53
2022-10-15T10:30:56.020Z,100744.25
2022-10-15T10:33:35.979Z,100744.78
2022-10-15T10:36:05.613Z,100744.41
2022-10-15T10:38:38.239Z,100745.34
2022-10-15T10:41:09.850Z,100750.59
2022-10-15T10:43:40.132Z,100741.84
2022-10-15T10:46:14.943Z,100747.22
2022-10-15T10:48:52.805Z,100737.44
2022-10-15T10:51:28.282Z,100739.34
2022-10-15T10:54:01.188Z,100741.13
2022-10-15T10:56:38.732Z,100729.56
2022-10-15T10:59:32.307Z,100743.09
2022-10-15T11:01:59.972Z,100722.75
2022-10-15T11:04:31.832Z,100730.16
2022-10-15T11:07:21.067Z,100728.53
2022-10-15T11:09:58.063Z,100730.38
2022-10-15T11:12:58.948Z,100730.16
2022-10-15T11:15:47.754Z,100731.47
2022-10-15T11:18:25.327Z,100731.69
2022-10-15T11:21:30.098Z,100729.59
2022-10-15T11:24:03.664Z,100733.56
2022-10-15T11:27:09.448Z,100724.91
2022-10-15T11:30:05.365Z,100720.69
2022-10-15T11:33:05.562Z,100722.50
2022-10-15T11:36:10.457Z,100720.16
2022-10-15T11:38:52.125Z,100712.09
2022-10-15T11:41:47.284Z,100723.63
2022-10-15T11:44:34.660Z,100717.19
2022-10-15T11:47:22.569Z,100722.97
2022-10-15T11:50:10.123Z,100715.66
2022-10-15T11:52:48.064Z,100721.63
2022-10-15T11:55:30.234Z,100724.44
2022-10-15T11:58:01.347Z,100720.09
2022-10-15T12:00:40.952Z,100712.22
2022-10-15T12:03:22.589Z,100723.97
2022-10-15T12:05:59.765Z,100728.16
2022-10-15T12:08:35.994Z,100716.47
2022-10-15T12:11:29.870Z,100723.22
2022-10-15T12:14:12.258Z,100715.63
2022-10-15T12:17:06.618Z,100715.81
2022-10-15T12:19:54.703Z,100701.25
2022-10-15T12:22:40.251Z,100699.22
2022-10-15T12:25:33.639Z,100712.81
2022-10-15T12:28:18.763Z,100714.28
2022-10-15T12:30:58.458Z,100703.41
2022-10-15T12:33:35.062Z,100706.72
2022-10-15T12:36:11.050Z,100715.03
2022-10-15T12:38:50.768Z,100709.28
2022-10-15T12:41:18.399Z,100708.91
2022-10-15T12:44:05.417Z,100707.38
2022-10-15T12:46:39.378Z,100707.81
2022-10-15T12:49:32.695Z,100708.44
2022-10-15T12:52:01.971Z,100703.34
2022-10-15T12:54:40.164Z,100701.84
2022-10-15T12:57:46.073Z,100723.97
2022-10-15T13:00:33.643Z,100710.06
2022-10-15T13:03:19.106Z,100719.25
2022-10-15T13:05:47.921Z,100718.22
2022-10-15T13:08:25.691Z,100712.13
2022-10-15T13:11:02.021Z,100718.69
2022-10-15T13:13:32.637Z,100710.81
2022-10-15T13:16:07.742Z,100724.78
2022-10-15T13:18:36.373Z,100720.22
2022-10-15T13:21:04.677Z,100715.56
2022-10-15T13:23:34.573Z,100716.50
2022-10-15T13:26:20.708Z,100719.06
2022-10-15T13:28:50.648Z,100715.63
2022-10-15T13:31:30.405Z,100706.69
2022-10-15T13:34:14.358Z,100721.16
2022-10-15T13:36:42.328Z,100716.75
2022-10-15T13:39:24.138Z,100717.63
2022-10-15T13:41:52.304Z,100715.72
2022-10-15T13:44:24.130Z,100722.84
2022-10-15T13:46:51.966Z,100719.09
2022-10-15T13:49:21.505Z,100710.22
2022-10-15T13:51:53.332Z,100716.50
2022-10-15T13:54:25.058Z,100713.41
2022-10-15T13:56:59.443Z,100723.06
2022-10-15T13:59:29.823Z,100729.41
2022-10-15T14:02:04.539Z,100735.16
2022-10-15T14:04:33.215Z,100734.09
2022-10-15T14:07:18.470Z,100728.56
2022-10-15T14:09:47.247Z,100731.69
2022-10-15T14:12:14.894Z,100742.56
2022-10-15T14:14:48.183Z,100741.44
2022-10-15T14:17:26.974Z,100740.00
2022-10-15T14:20:25.742Z,100737.84
2022-10-15T14:22:49.646Z,100735.81
2022-10-15T14:25:23.588Z,100742.66
2022-10-15T14:27:52.214Z,100736.69
2022-10-15T14:30:34.495Z,100736.63
2022-10-15T14:33:02.063Z,100736.22
2022-10-15T14:35:34.240Z,100747.38
2022-10-15T14:38:16.465Z,100742.88
2022-10-15T14:41:06.369Z,100739.59
2022-10-15T14:43:38.392Z,100741.81
2022-10-15T14:46:13.357Z,100755.63
2022-10-15T14:48:43.619Z,100759.00
2022-10-15T14:51:25.287Z,100751.44
2022-10-15T14:53:53.873Z,100745.81
2022-10-15T14:56:24.507Z,100756.22
2022-10-15T14:58:56.918Z,100757.13
2022-10-15T15:01:25.330Z,100750.88
2022-10-15T15:03:55.211Z,100756.88
2022-10-15T15:06:23.357Z,100755.91
2022-10-15T15:08:51.051Z,100751.59
2022-10-15T15:11:23.003Z,100769.28
2022-10-15T15:13:51.652Z,100757.75
2022-10-15T15:16:19.475Z,100763.84
2022-10-15T15:18:49.038Z,100766.34
2022-10-15T15:21:24.022Z,100769.72
2022-10-15T15:23:51.706Z,100748.50
2022-10-15T15:26:19.288Z,100769.66
2022-10-15T15:28:46.781Z,100779.84
2022-10-15T15:31:17.922Z,100776.19
2022-10-15T15:33:46.126Z,100765.66
2022-10-15T15:36:19.088Z,100770.72
2022-10-15T15:38:51.610Z,100782.75
2022-10-15T15:41:21.850Z,100774.84
2022-10-15T15:43:50.008Z,100775.38
2022-10-15T15:46:17.726Z,100770.69
2022-10-15T15:48:54.419Z,100778.41
2022-10-15T15:51:25.846Z,100774.94
2022-10-15T15:53:53.690Z,100774.00
2022-10-15T15:56:21.310Z,100780.72
2022-10-15T15:58:50.453Z,100783.19
2022-10-15T16:01:19.127Z,100780.47
2022-10-15T16:03:47.446Z,100781.81
2022-10-15T16:06:15.302Z,100778.09
2022-10-15T16:08:42.883Z,100778.66
2022-10-15T16:11:10.387Z,100782.97
2022-10-15T16:13:38.103Z,100769.66
2022-10-15T16:16:05.899Z,100780.94
2022-10-15T16:18:33.414Z,100778.22
2022-10-15T16:21:00.928Z,100770.19
2022-10-15T16:23:28.461Z,100785.19
2022-10-15T16:25:57.596Z,100783.44
2022-10-15T16:28:25.179Z,100773.69
2022-10-15T16:30:52.640Z,100778.84
2022-10-15T16:33:20.307Z,100775.13
2022-10-15T16:35:53.919Z,100779.34
2022-10-15T16:38:21.415Z,100775.59
2022-10-15T16:40:48.815Z,100787.94
2022-10-15T16:43:16.326Z,100779.19
2022-10-15T16:45:43.725Z,100782.03
2022-10-15T16:48:11.729Z,100779.13
2022-10-15T16:50:39.126Z,100776.63
2022-10-15T16:53:06.542Z,100774.59
2022-10-15T16:55:34.118Z,100791.94
2022-10-15T16:58:01.539Z,100786.81
2022-10-15T17:00:29.240Z,100785.41
2022-10-15T17:02:56.772Z,100791.94
2022-10-15T17:05:24.340Z,100788.31
2022-10-15T17:07:51.846Z,100784.41
2022-10-15T17:10:25.637Z,100799.56
2022-10-15T17:12:53.210Z,100797.69
2022-10-15T17:15:20.695Z,100787.06
2022-10-15T17:17:48.788Z,100797.53
2022-10-15T17:20:16.326Z,100797.97
2022-10-15T17:22:43.875Z,100796.19
2022-10-15T17:25:11.277Z,100801.25
2022-10-15T17:27:38.950Z,100807.41
2022-10-15T17:30:07.161Z,100799.44
2022-10-15T17:32:34.662Z,100809.19
2022-10-15T17:35:03.994Z,100801.31
2022-10-15T17:37:32.527Z,100799.44
2022-10-15T17:40:00.135Z,100808.94
2022-10-15T17:42:28.304Z,100801.13
2022-10-15T17:44:55.929Z,100803.00
2022-10-15T17:47:23.893Z,100806.16
2022-10-15T17:49:51.672Z,100811.22
2022-10-15T17:52:19.291Z,100810.06
2022-10-15T17:54:47.293Z,100820.59
2022-10-15T17:57:14.770Z,100825.72
2022-10-15T17:59:42.262Z,100816.53
2022-10-15T18:02:10.368Z,100830.69
2022-10-15T18:04:40.248Z,100818.47
2022-10-15T18:07:08.067Z,100826.22
2022-10-15T18:09:36.133Z,100825.28
2022-10-15T18:12:03.801Z,100831.56
2022-10-15T18:14:34.276Z,100822.63
2022-10-15T18:17:02.036Z,100842.50
2022-10-15T18:19:29.808Z,100841.44
2022-10-15T18:21:57.825Z,100845.69
2022-10-15T18:24:25.373Z,100836.25
2022-10-15T18:26:53.276Z,100840.28
2022-10-15T18:29:22.584Z,100849.06
2022-10-15T18:31:54.736Z,100837.34
2022-10-15T18:34:24.092Z,100844.53
2022-10-15T18:36:51.536Z,100837.97
2022-10-15T18:39:20.063Z,100848.47
2022-10-15T18:41:47.761Z,100848.41
2022-10-15T18:44:16.936Z,100847.72
2022-10-15T18:46:45.718Z,100843.28
2022-10-15T18:49:15.863Z,100863.09
2022-10-15T18:51:46.238Z,100847.44
2022-10-15T18:54:13.759Z,100844.56
2022-10-15T18:56:41.632Z,100852.28
2022-10-15T18:59:09.444Z,100856.16
2022-10-15T19:01:41.717Z,100848.91
2022-10-15T19:04:14.781Z,100861.28
2022-10-15T19:06:50.705Z,100851.25
2022-10-15T19:09:26.465Z,100857.97
2022-10-15T19:11:56.037Z,100854.25
2022-10-15T19:14:25.594Z,100858.31
2022-10-15T19:16:53.394Z,100863.22
2022-10-15T19:19:22.510Z,100869.22
2022-10-15T19:21:51.396Z,100873.75
2022-10-15T19:24:21.462Z,100869.84
2022-10-15T19:26:51.229Z,100870.44
2022-10-15T19:29:19.214Z,100885.13
2022-10-15T19:31:48.943Z,100886.91
2022-10-15T19:34:16.466Z,100881.28
2022-10-15T19:36:47.704Z,100890.50
2022-10-15T19:39:21.398Z,100886.41
2022-10-15T19:41:49.828Z,100894.28
2022-10-15T19:44:24.887Z,100894.09
2022-10-15T19:46:52.891Z,100905.22
2022-10-15T19:49:21.124Z,100905.94
2022-10-15T19:51:49.730Z,100907.00
2022-10-15T19:54:17.734Z,100898.91
2022-10-15T19:56:45.338Z,100905.94
2022-10-15T19:59:16.963Z,100911.16
2022-10-15T20:01:44.523Z,100907.13
2022-10-15T20:04:12.084Z,100909.34
2022-10-15T20:06:39.664Z,100906.50
2022-10-15T20:09:08.846Z,100916.66
2022-10-15T20:11:37.443Z,100907.78
2022-10-15T20:14:05.604Z,100918.25
2022-10-15T20:16:33.667Z,100922.06
2022-10-15T20:19:03.797Z,100921.75
2022-10-15T20:21:32.205Z,100926.97
2022-10-15T20:24:04.271Z,100923.63
2022-10-15T20:26:32.758Z,100913.00
2022-10-15T20:29:00.433Z,100920.09
2022-10-15T20:31:32.795Z,100922.84
2022-10-15T20:34:01.254Z,100932.22
2022-10-15T20:36:28.893Z,100923.63
2022-10-15T20:38:57.578Z,100931.72
2022-10-15T20:41:25.167Z,100937.13
2022-10-15T20:43:55.124Z,100945.69
2022-10-15T20:46:33.084Z,100948.94
2022-10-15T20:49:08.480Z,100947.09
2022-10-15T20:51:39.856Z,100942.72
2022-10-15T20:54:07.949Z,100932.31
2022-10-15T20:56:35.581Z,100946.78
2022-10-15T20:59:05.154Z,100954.34
2022-10-15T21:01:34.682Z,100947.38
2022-10-15T21:04:02.702Z,100950.13
2022-10-15T21:06:30.918Z,100947.66
2022-10-15T21:08:58.761Z,100944.91
2022-10-15T21:11:26.400Z,100948.25
2022-10-15T21:13:53.885Z,100931.03
2022-10-15T21:16:24.506Z,100946.09
2022-10-15T21:18:55.206Z,100940.38
2022-10-15T21:21:22.603Z,100950.63
2022-10-15T21:23:50.095Z,100951.91
2022-10-15T21:26:18.711Z,100953.69
2022-10-15T21:28:46.567Z,100958.78
2022-10-15T21:31:16.487Z,100948.25
2022-10-15T21:33:46.168Z,100960.47
2022-10-15T21:36:21.707Z,100959.28
2022-10-15T21:38:54.089Z,100965.09
2022-10-15T21:41:23.045Z,100966.97
2022-10-15T21:43:50.928Z,100965.91
2022-10-15T21:46:18.613Z,100956.72
2022-10-15T21:48:46.538Z,100959.19
2022-10-15T21:51:16.350Z,100967.66
2022-10-15T21:53:44.390Z,100970.31
2022-10-15T21:56:12.185Z,100965.50
2022-10-15T21:58:41.281Z,100959.66
2022-10-15T22:01:14.610Z,100977.00
2022-10-15T22:03:45.796Z,100974.34
2022-10-15T22:06:13.975Z,100968.13
2022-10-15T22:08:41.694Z,100972.38
2022-10-15T22:14:03.701Z,100972.56
2022-10-15T22:16:33.936Z,100971.28
2022-10-15T22:19:02.077Z,100975.13
2022-10-15T22:21:35.194Z,100969.31
2022-10-15T22:24:08.691Z,100975.41
2022-10-15T22:26:39.182Z,100984.66
2022-10-15T22:29:09.309Z,100980.50
2022-10-15T22:31:36.931Z,100974.69
2022-10-15T22:34:04.356Z,100985.25
2022-10-15T22:36:31.994Z,100980.94
2022-10-15T22:39:02.430Z,100982.88
2022-10-15T22:41:32.877Z,100986.81
2022-10-15T22:44:00.839Z,100969.31
2022-10-15T22:46:28.360Z,100987.50
2022-10-15T22:48:55.919Z,100982.47
2022-10-15T22:51:23.340Z,100992.44
2022-10-15T22:53:54.585Z,100995.88
2022-10-15T22:56:22.734Z,100991.53
2022-10-15T22:58:50.668Z,100981.38
2022-10-15T23:01:23.751Z,100985.41
2022-10-15T23:03:54.054Z,100999.97
2022-10-15T23:06:22.787Z,100992.28
2022-10-15T23:08:50.495Z,100991.19
2022-10-15T23:11:23.731Z,101000.94
2022-10-15T23:13:56.679Z,100998.38
2022-10-15T23:16:29.356Z,100991.97
2022-10-15T23:18:59.731Z,101010.84
2022-10-15T23:21:34.835Z,101014.34
2022-10-15T23:24:02.597Z,100997.44
2022-10-15T23:26:30.599Z,101007.59
2022-10-15T23:28:59.826Z,101013.81
2022-10-15T23:31:30.317Z,101010.94
2022-10-15T23:33:59.077Z,101013.16
2022-10-15T23:36:28.152Z,101010.50
2022-10-15T23:39:01.198Z,101014.28
2022-10-15T23:41:29.759Z,101017.19
2022-10-15T23:43:57.686Z,101024.06
2022-10-15T23:46:25.416Z,101017.97
2022-10-15T23:48:52.858Z,101026.22
2022-10-15T23:51:29.301Z,101027.00
2022-10-15T23:53:59.061Z,101019.25
2022-10-15T23:56:27.485Z,101018.59
2022-10-15T23:58:57.759Z,101024.59
